createdAt,value
2022-12-31T00:00:26.537Z,99352.72
2022-12-31T00:01:10.406Z,99372.78
2022-12-31T00:01:52.126Z,99381.19
2022-12-31T00:02:36.246Z,99311.00
2022-12-31T00:03:18.169Z,99361.25
2022-12-31T00:03:59.905Z,99383.94
2022-12-31T00:04:41.606Z,99392.16
2022-12-31T00:05:24.098Z,99388.06
2022-12-31T00:06:23.614Z,99383.34
2022-12-31T00:07:05.288Z,99390.72
2022-12-31T00:07:47.023Z,99394.81
2022-12-31T00:08:28.653Z,99396.66
2022-12-31T00:09:10.683Z,99390.53
2022-12-31T00:09:52.314Z,99379.72
2022-12-31T00:10:39.863Z,99390.53
2022-12-31T00:11:26.042Z,99396.66
2022-12-31T00:12:07.674Z,99393.63
2022-12-31T00:12:49.345Z,99400.78
2022-12-31T00:13:30.964Z,99410.41
2022-12-31T00:14:12.639Z,99343.34
2022-12-31T00:14:57.023Z,99412.25
2022-12-31T00:15:40.269Z,99386.28
2022-12-31T00:16:24.422Z,99393.63
2022-12-31T00:17:07.702Z,99400.81
2022-12-31T00:17:49.349Z,99384.03
2022-12-31T00:18:30.960Z,99396.69
2022-12-31T00:19:13.092Z,99388.72
2022-12-31T00:19:54.733Z,99369.53
2022-12-31T00:20:42.611Z,99386.47
2022-12-31T00:21:24.308Z,99381.81
2022-12-31T00:22:06.720Z,99367.69
2022-12-31T00:22:48.336Z,99365.41
2022-12-31T00:23:29.883Z,99383.41
2022-12-31T00:24:12.629Z,99381.31
2022-12-31T00:24:54.254Z,99387.03
2022-12-31T00:25:36.638Z,99389.47
2022-12-31T00:26:24.703Z,99375.16
2022-12-31T00:27:06.348Z,99387.84
2022-12-31T00:27:47.992Z,99388.66
2022-12-31T00:28:29.648Z,99396.03
2022-12-31T00:29:11.305Z,99364.94
2022-12-31T00:29:53.013Z,99391.94
2022-12-31T00:30:34.823Z,99360.41
2022-12-31T00:31:22.837Z,99383.69
2022-12-31T00:32:04.688Z,99382.88
2022-12-31T00:32:46.298Z,99387.56
2022-12-31T00:33:27.909Z,99361.38
2022-12-31T00:34:09.698Z,99377.69
2022-12-31T00:34:51.329Z,99391.63
2022-12-31T00:35:34.612Z,99381.16
2022-12-31T00:36:22.410Z,99342.19
2022-12-31T00:37:04.157Z,99379.31
2022-12-31T00:37:45.773Z,99373.59
2022-12-31T00:38:27.367Z,99345.00
2022-12-31T00:39:10.472Z,99380.09
2022-12-31T00:39:52.107Z,99372.50
2022-12-31T00:40:33.674Z,99360.81
2022-12-31T00:41:18.150Z,99351.59
2022-12-31T00:41:59.952Z,99368.38
2022-12-31T00:42:41.592Z,99373.25
2022-12-31T00:43:23.231Z,99375.13
2022-12-31T00:44:04.846Z,99368.53
2022-12-31T00:44:46.432Z,99367.50
2022-12-31T00:45:28.083Z,99379.19
2022-12-31T00:46:12.222Z,99369.13
2022-12-31T00:46:53.974Z,99382.47
2022-12-31T00:47:35.640Z,99370.16
2022-12-31T00:48:17.670Z,99378.16
2022-12-31T00:48:59.288Z,99367.22
2022-12-31T00:49:40.990Z,99350.69
2022-12-31T00:50:22.577Z,99310.78
2022-12-31T00:51:06.283Z,99382.59
2022-12-31T00:51:48.173Z,99373.56
2022-12-31T00:52:29.971Z,99361.53
2022-12-31T00:53:11.629Z,99353.47
2022-12-31T00:53:53.905Z,99363.91
2022-12-31T00:54:35.600Z,99364.81
2022-12-31T00:55:17.182Z,99366.88
2022-12-31T00:56:12.410Z,99359.28
2022-12-31T00:56:56.226Z,99362.06
2022-12-31T00:57:37.896Z,99365.66
2022-12-31T00:58:19.520Z,99382.81
2022-12-31T00:59:01.335Z,99369.88
2022-12-31T00:59:42.964Z,99371.94
2022-12-31T01:00:24.609Z,99365.97
2022-12-31T01:01:13.487Z,99375.59
2022-12-31T01:01:55.313Z,99371.50
2022-12-31T01:02:37.180Z,99372.94
2022-12-31T01:03:19.069Z,99342.69
2022-12-31T01:04:15.751Z,99368.34
2022-12-31T01:04:57.457Z,99377.38
2022-12-31T01:05:39.058Z,99366.81
2022-12-31T01:06:21.165Z,99320.88
2022-12-31T01:07:04.765Z,99374.78
2022-12-31T01:07:46.563Z,99361.13
2022-12-31T01:08:30.563Z,99388.31
2022-12-31T01:09:13.948Z,99384.03
2022-12-31T01:09:55.627Z,99385.66
2022-12-31T01:10:55.867Z,99392.84
2022-12-31T01:11:37.766Z,99377.47
2022-12-31T01:12:19.444Z,99395.28
2022-12-31T01:13:01.060Z,99419.66
2022-12-31T01:13:42.663Z,99383.16
2022-12-31T01:14:24.287Z,99390.16
2022-12-31T01:15:06.533Z,99321.41
2022-12-31T01:15:48.299Z,99361.34
2022-12-31T01:16:34.591Z,99388.03
2022-12-31T01:17:17.195Z,99385.59
2022-12-31T01:17:58.832Z,99342.28
2022-12-31T01:18:40.538Z,99388.09
2022-12-31T01:19:28.395Z,99408.63
2022-12-31T01:20:10.364Z,99374.66
2022-12-31T01:20:52.083Z,99401.22
2022-12-31T01:21:35.319Z,99397.75
2022-12-31T01:22:16.918Z,99378.75
2022-12-31T01:22:58.534Z,99358.34
2022-12-31T01:23:40.551Z,99389.78
2022-12-31T01:24:24.969Z,99402.28
2022-12-31T01:25:07.045Z,99404.09
2022-12-31T01:25:48.617Z,99387.19
2022-12-31T01:26:30.829Z,99395.72
2022-12-31T01:27:12.459Z,99407.72
2022-12-31T01:27:54.596Z,99396.25
2022-12-31T01:28:36.662Z,99387.50
2022-12-31T01:29:18.511Z,99389.13
2022-12-31T01:30:00.233Z,99395.44
2022-12-31T01:30:41.980Z,99411.41
2022-12-31T01:31:24.758Z,99396.25
2022-12-31T01:32:06.361Z,99409.16
2022-12-31T01:32:47.902Z,99378.78
2022-12-31T01:33:29.507Z,99368.75
2022-12-31T01:34:11.327Z,99402.09
2022-12-31T01:34:53.008Z,99372.56
2022-12-31T01:35:35.959Z,99384.63
2022-12-31T01:36:25.560Z,99383.59
2022-12-31T01:37:07.682Z,99312.81
2022-12-31T01:37:49.339Z,99373.44
2022-12-31T01:38:31.220Z,99380.38
2022-12-31T01:39:13.201Z,99382.31
2022-12-31T01:39:54.816Z,99399.06
2022-12-31T01:40:38.060Z,99409.34
2022-12-31T01:41:23.523Z,99388.84
2022-12-31T01:42:05.408Z,99376.84
2022-12-31T01:42:55.260Z,99381.28
2022-12-31T01:43:50.414Z,99385.06
2022-12-31T01:44:31.962Z,99389.75
2022-12-31T01:45:14.365Z,99378.78
2022-12-31T01:45:56.051Z,99387.84
2022-12-31T01:46:51.869Z,99381.91
2022-12-31T01:47:39.622Z,99384.44
2022-12-31T01:48:26.046Z,99402.88
2022-12-31T01:49:22.518Z,99391.16
2022-12-31T01:50:29.290Z,99383.44
2022-12-31T01:51:10.982Z,99391.41
2022-12-31T01:51:58.365Z,99373.16
2022-12-31T01:52:46.480Z,99388.22
2022-12-31T01:53:28.859Z,99384.09
2022-12-31T01:54:15.048Z,99390.22
2022-12-31T01:55:07.945Z,99399.63
2022-12-31T01:55:56.390Z,99396.16
2022-12-31T01:56:41.852Z,99391.72
2022-12-31T01:57:26.102Z,99394.75
2022-12-31T01:58:15.910Z,99377.47
2022-12-31T01:59:00.856Z,99339.13
2022-12-31T01:59:43.500Z,99380.13
2022-12-31T02:00:25.125Z,99383.69
2022-12-31T02:01:08.310Z,99378.50
2022-12-31T02:01:53.933Z,99411.44
2022-12-31T02:02:36.055Z,99384.63
2022-12-31T02:03:19.071Z,99392.22
2022-12-31T02:04:06.913Z,99387.22
2022-12-31T02:04:54.893Z,99382.50
2022-12-31T02:05:47.760Z,99393.16
2022-12-31T02:06:37.966Z,99377.28
2022-12-31T02:07:19.828Z,99354.41
2022-12-31T02:08:03.085Z,99392.31
2022-12-31T02:08:45.087Z,99400.31
2022-12-31T02:09:26.758Z,99391.72
2022-12-31T02:10:08.740Z,99395.78
2022-12-31T02:10:50.352Z,99384.31
2022-12-31T02:11:36.504Z,99388.59
2022-12-31T02:12:18.158Z,99365.75
2022-12-31T02:13:00.027Z,99382.06
2022-12-31T02:13:41.609Z,99364.56
2022-12-31T02:14:30.882Z,99362.72
2022-12-31T02:15:12.627Z,99366.19
2022-12-31T02:16:09.410Z,99360.47
2022-12-31T02:17:14.224Z,99387.63
2022-12-31T02:18:28.314Z,99387.84
2022-12-31T02:19:32.529Z,99330.78
2022-12-31T02:20:23.251Z,99396.13
2022-12-31T02:21:40.411Z,99398.38
2022-12-31T02:22:30.836Z,99390.50
2022-12-31T02:23:18.161Z,99400.75
2022-12-31T02:24:18.051Z,99401.94
2022-12-31T02:25:27.777Z,99395.94
2022-12-31T02:26:55.917Z,99401.69
2022-12-31T02:27:46.757Z,99416.16
2022-12-31T02:28:43.567Z,99393.78
2022-12-31T02:29:46.584Z,99405.91
2022-12-31T02:30:32.076Z,99417.03
2022-12-31T02:31:21.833Z,99369.16
2022-12-31T02:32:24.753Z,99388.47
2022-12-31T02:33:44.740Z,99406.59
2022-12-31T02:34:32.980Z,99386.28
2022-12-31T02:35:53.842Z,99399.72
2022-12-31T02:36:41.179Z,99414.06
2022-12-31T02:37:25.492Z,99399.97
2022-12-31T02:38:15.865Z,99395.75
2022-12-31T02:38:58.789Z,99411.25
2022-12-31T02:39:43.123Z,99420.28
2022-12-31T02:40:25.469Z,99417.59
2022-12-31T02:41:33.177Z,99392.44
2022-12-31T02:42:14.895Z,99414.06
2022-12-31T02:42:56.587Z,99424.34
2022-12-31T02:43:46.609Z,99422.38
2022-12-31T02:44:32.257Z,99414.50
2022-12-31T02:45:20.985Z,99413.25
2022-12-31T02:46:16.433Z,99372.63
2022-12-31T02:47:23.167Z,99414.22
2022-12-31T02:48:26.279Z,99422.38
2022-12-31T02:49:20.427Z,99420.47
2022-12-31T02:50:22.610Z,99437.03
2022-12-31T02:51:19.316Z,99431.38
2022-12-31T02:52:09.763Z,99402.72
2022-12-31T02:53:23.292Z,99418.66
2022-12-31T02:54:11.511Z,99429.31
2022-12-31T02:55:02.942Z,99425.53
2022-12-31T02:56:03.100Z,99414.41
2022-12-31T02:57:15.247Z,99415.22
2022-12-31T02:58:52.820Z,99414.63
2022-12-31T03:00:03.255Z,99391.78
2022-12-31T03:01:09.683Z,99416.13
2022-12-31T03:02:16.156Z,99423.97
2022-12-31T03:02:59.533Z,99429.97
2022-12-31T03:03:41.571Z,99401.13
2022-12-31T03:04:34.245Z,99385.03
2022-12-31T03:05:18.760Z,99419.03
2022-12-31T03:06:03.081Z,99425.19
2022-12-31T03:06:44.818Z,99424.63
2022-12-31T03:07:29.419Z,99424.78
2022-12-31T03:08:11.039Z,99378.75
2022-12-31T03:09:11.587Z,99436.81
2022-12-31T03:09:54.030Z,99410.47
2022-12-31T03:10:36.226Z,99425.97
2022-12-31T03:11:37.912Z,99420.63
2022-12-31T03:12:41.762Z,99420.47
2022-12-31T03:13:24.625Z,99427.44
2022-12-31T03:14:06.276Z,99416.84
2022-12-31T03:14:47.965Z,99434.19
2022-12-31T03:15:32.480Z,99424.94
2022-12-31T03:16:14.101Z,99420.41
2022-12-31T03:16:55.816Z,99401.44
2022-12-31T03:17:37.408Z,99422.44
2022-12-31T03:18:39.647Z,99370.19
2022-12-31T03:19:39.795Z,99430.13
2022-12-31T03:20:43.459Z,99428.28
2022-12-31T03:21:43.614Z,99435.69
2022-12-31T03:22:28.480Z,99419.50
2022-12-31T03:23:12.577Z,99436.13
2022-12-31T03:24:12.916Z,99420.41
2022-12-31T03:25:19.286Z,99431.16
2022-12-31T03:26:03.973Z,99431.91
2022-12-31T03:26:45.600Z,99444.72
2022-12-31T03:27:27.213Z,99440.72
2022-12-31T03:28:15.367Z,99448.44
2022-12-31T03:28:56.956Z,99425.06
2022-12-31T03:29:38.539Z,99413.56
2022-12-31T03:30:21.993Z,99454.97
2022-12-31T03:31:04.462Z,99461.88
2022-12-31T03:31:46.226Z,99452.53
2022-12-31T03:32:29.394Z,99452.56
2022-12-31T03:33:11.721Z,99463.06
2022-12-31T03:33:53.517Z,99446.09
2022-12-31T03:34:35.096Z,99453.44
2022-12-31T03:35:20.523Z,99456.69
2022-12-31T03:36:07.723Z,99445.66
2022-12-31T03:36:49.336Z,99448.66
2022-12-31T03:37:31.173Z,99447.56
2022-12-31T03:38:13.894Z,99390.69
2022-12-31T03:38:55.743Z,99434.00
2022-12-31T03:39:37.399Z,99385.06
2022-12-31T03:40:21.691Z,99437.69
2022-12-31T03:41:03.856Z,99440.25
2022-12-31T03:41:45.511Z,99434.91
2022-12-31T03:42:27.109Z,99415.16
2022-12-31T03:43:09.043Z,99438.44
2022-12-31T03:43:50.667Z,99429.22
2022-12-31T03:44:32.244Z,99434.06
2022-12-31T03:45:14.775Z,99438.97
2022-12-31T03:45:59.714Z,99452.75
2022-12-31T03:46:41.451Z,99396.66
2022-12-31T03:47:23.026Z,99438.44
2022-12-31T03:48:06.492Z,99445.63
2022-12-31T03:48:48.099Z,99447.91
2022-12-31T03:49:29.824Z,99455.91
2022-12-31T03:50:14.303Z,99431.72
2022-12-31T03:50:55.954Z,99421.34
2022-12-31T03:51:37.636Z,99441.09
2022-12-31T03:52:19.336Z,99420.63
2022-12-31T03:53:01.224Z,99442.44
2022-12-31T03:53:42.882Z,99447.78
2022-12-31T03:54:24.602Z,99421.63
2022-12-31T03:55:07.420Z,99440.81
2022-12-31T03:55:53.287Z,99445.19
2022-12-31T03:56:34.967Z,99416.78
2022-12-31T03:57:16.596Z,99447.22
2022-12-31T03:57:58.275Z,99401.06
2022-12-31T03:58:39.986Z,99412.72
2022-12-31T03:59:21.592Z,99406.34
2022-12-31T04:00:06.885Z,99442.16
2022-12-31T04:00:51.879Z,99441.31
2022-12-31T04:01:33.549Z,99438.88
2022-12-31T04:02:15.939Z,99433.19
2022-12-31T04:02:57.669Z,99429.41
2022-12-31T04:03:39.396Z,99439.09
2022-12-31T04:04:21.071Z,99382.97
2022-12-31T04:05:02.987Z,99420.28
2022-12-31T04:05:44.590Z,99439.03
2022-12-31T04:06:26.960Z,99412.50
2022-12-31T04:07:08.590Z,99439.41
2022-12-31T04:07:52.004Z,99428.75
2022-12-31T04:08:33.655Z,99441.56
2022-12-31T04:09:15.268Z,99453.06
2022-12-31T04:09:57.417Z,99402.63
2022-12-31T04:10:39.058Z,99447.50
2022-12-31T04:11:21.249Z,99418.28
2022-12-31T04:12:03.120Z,99441.13
2022-12-31T04:12:45.136Z,99434.28
2022-12-31T04:13:26.768Z,99446.97
2022-12-31T04:14:08.653Z,99452.09
2022-12-31T04:14:50.581Z,99436.28
2022-12-31T04:15:35.230Z,99448.00
2022-12-31T04:16:16.944Z,99449.28
2022-12-31T04:16:58.608Z,99441.19
2022-12-31T04:17:40.248Z,99449.28
2022-12-31T04:18:22.257Z,99442.97
2022-12-31T04:19:04.173Z,99446.47
2022-12-31T04:19:45.845Z,99443.31
2022-12-31T04:20:27.486Z,99444.00
2022-12-31T04:21:09.117Z,99423.03
2022-12-31T04:21:50.768Z,99435.47
2022-12-31T04:22:32.407Z,99443.78
2022-12-31T04:23:14.079Z,99440.25
2022-12-31T04:23:55.885Z,99440.81
2022-12-31T04:24:37.465Z,99451.22
2022-12-31T04:25:19.074Z,99459.00
2022-12-31T04:26:01.086Z,99448.09
2022-12-31T04:26:44.027Z,99448.22
2022-12-31T04:27:25.751Z,99430.22
2022-12-31T04:28:07.314Z,99455.00
2022-12-31T04:28:48.934Z,99456.31
2022-12-31T04:29:30.578Z,99459.78
2022-12-31T04:30:13.188Z,99455.66
2022-12-31T04:30:54.828Z,99466.28
2022-12-31T04:31:36.820Z,99468.94
2022-12-31T04:32:18.507Z,99459.28
2022-12-31T04:33:00.130Z,99447.22
2022-12-31T04:33:41.713Z,99459.81
2022-12-31T04:34:23.359Z,99463.66
2022-12-31T04:35:05.552Z,99447.13
2022-12-31T04:35:47.155Z,99458.25
2022-12-31T04:36:28.742Z,99444.09
2022-12-31T04:37:10.366Z,99457.88
2022-12-31T04:37:51.948Z,99354.59
2022-12-31T04:38:34.249Z,99466.84
2022-12-31T04:39:15.911Z,99479.31
2022-12-31T04:40:05.120Z,99472.09
2022-12-31T04:41:05.987Z,99437.03
2022-12-31T04:41:47.872Z,99457.50
2022-12-31T04:42:29.441Z,99454.38
2022-12-31T04:43:11.027Z,99469.88
2022-12-31T04:43:55.168Z,99469.88
2022-12-31T04:44:36.742Z,99466.94
2022-12-31T04:45:18.344Z,99459.94
2022-12-31T04:46:00.159Z,99480.28
2022-12-31T04:46:42.030Z,99442.69
2022-12-31T04:47:24.156Z,99476.44
2022-12-31T04:48:06.196Z,99474.22
2022-12-31T04:48:47.845Z,99470.22
2022-12-31T04:49:29.512Z,99458.75
2022-12-31T04:50:11.086Z,99428.44
2022-12-31T04:50:53.168Z,99477.56
2022-12-31T04:51:35.092Z,99494.56
2022-12-31T04:52:17.067Z,99493.53
2022-12-31T04:52:58.712Z,99477.34
2022-12-31T04:53:40.912Z,99486.88
2022-12-31T04:54:23.281Z,99488.53
2022-12-31T04:55:05.288Z,99489.13
2022-12-31T04:55:47.019Z,99492.22
2022-12-31T04:56:29.145Z,99498.69
2022-12-31T04:57:10.780Z,99494.66
2022-12-31T04:57:52.341Z,99488.63
2022-12-31T04:58:34.808Z,99489.22
2022-12-31T04:59:16.453Z,99457.88
2022-12-31T04:59:58.082Z,99476.78
2022-12-31T05:00:39.698Z,99482.13
2022-12-31T05:01:21.866Z,99495.50
2022-12-31T05:02:03.736Z,99479.69
2022-12-31T05:02:45.873Z,99475.38
2022-12-31T05:03:28.246Z,99479.53
2022-12-31T05:04:09.842Z,99479.31
2022-12-31T05:04:51.430Z,99494.44
2022-12-31T05:05:33.178Z,99492.59
2022-12-31T05:06:18.986Z,99488.28
2022-12-31T05:07:00.783Z,99454.59
2022-12-31T05:07:42.389Z,99476.84
2022-12-31T05:08:24.034Z,99499.09
2022-12-31T05:09:05.732Z,99495.84
2022-12-31T05:09:47.348Z,99501.19
2022-12-31T05:10:29.309Z,99500.97
2022-12-31T05:11:11.456Z,99512.47
2022-12-31T05:11:53.096Z,99503.13
2022-12-31T05:12:34.699Z,99480.78
2022-12-31T05:13:16.390Z,99484.19
2022-12-31T05:13:57.983Z,99487.25
2022-12-31T05:14:39.552Z,99510.00
2022-12-31T05:15:21.144Z,99488.28
2022-12-31T05:16:03.718Z,99505.47
2022-12-31T05:16:45.388Z,99494.22
2022-12-31T05:17:27.069Z,99494.66
2022-12-31T05:18:09.090Z,99503.50
2022-12-31T05:18:50.724Z,99498.16
2022-12-31T05:19:32.297Z,99501.88
2022-12-31T05:20:13.864Z,99498.38
2022-12-31T05:20:55.551Z,99496.97
2022-12-31T05:21:38.628Z,99501.06
2022-12-31T05:22:29.328Z,99502.69
2022-12-31T05:23:11.099Z,99444.78
2022-12-31T05:23:52.991Z,99515.47
2022-12-31T05:24:34.645Z,99505.59
2022-12-31T05:25:16.276Z,99525.22
2022-12-31T05:25:59.615Z,99489.31
2022-12-31T05:26:41.258Z,99518.19
2022-12-31T05:27:24.061Z,99514.47
2022-12-31T05:28:05.646Z,99514.84
2022-12-31T05:28:47.402Z,99508.47
2022-12-31T05:29:29.167Z,99507.88
2022-12-31T05:30:11.281Z,99500.28
2022-12-31T05:30:53.114Z,99522.97
2022-12-31T05:31:34.840Z,99515.41
2022-12-31T05:32:16.687Z,99511.03
2022-12-31T05:32:58.360Z,99485.06
2022-12-31T05:33:39.972Z,99493.34
2022-12-31T05:34:21.542Z,99515.50
2022-12-31T05:35:03.929Z,99517.47
2022-12-31T05:35:45.586Z,99511.41
2022-12-31T05:36:27.185Z,99507.09
2022-12-31T05:37:08.880Z,99534.31
2022-12-31T05:37:50.961Z,99523.25
2022-12-31T05:38:33.048Z,99530.84
2022-12-31T05:39:14.806Z,99528.72
2022-12-31T05:39:57.054Z,99522.09
2022-12-31T05:40:38.676Z,99534.53
2022-12-31T05:41:20.235Z,99510.53
2022-12-31T05:42:01.829Z,99530.25
2022-12-31T05:42:43.798Z,99522.09
2022-12-31T05:43:25.399Z,99532.25
2022-12-31T05:44:06.965Z,99529.78
2022-12-31T05:44:48.918Z,99530.59
2022-12-31T05:45:31.309Z,99529.78
2022-12-31T05:46:13.227Z,99485.03
2022-12-31T05:46:54.853Z,99542.34
2022-12-31T05:47:36.468Z,99537.59
2022-12-31T05:48:18.227Z,99530.84
2022-12-31T05:48:59.818Z,99526.31
2022-12-31T05:49:41.460Z,99530.97
2022-12-31T05:50:23.098Z,99517.84
2022-12-31T05:51:10.346Z,99522.59
2022-12-31T05:51:51.909Z,99516.28
2022-12-31T05:52:33.549Z,99503.22
2022-12-31T05:53:15.184Z,99521.63
2022-12-31T05:53:56.773Z,99530.59
2022-12-31T05:54:38.366Z,99519.09
2022-12-31T05:55:20.113Z,99502.19
2022-12-31T05:56:01.808Z,99511.63
2022-12-31T05:56:43.428Z,99477.22
2022-12-31T05:57:25.320Z,99524.28
2022-12-31T05:58:06.895Z,99529.53
2022-12-31T05:58:48.519Z,99524.25
2022-12-31T05:59:30.723Z,99511.88
2022-12-31T06:00:12.735Z,99526.22
2022-12-31T06:00:57.126Z,99530.59
2022-12-31T06:01:38.840Z,99533.56
2022-12-31T06:02:21.723Z,99531.94
2022-12-31T06:03:03.562Z,99540.97
2022-12-31T06:03:45.777Z,99523.84
2022-12-31T06:04:27.462Z,99552.13
2022-12-31T06:05:09.297Z,99533.50
2022-12-31T06:05:50.951Z,99536.19
2022-12-31T06:06:32.582Z,99539.56
2022-12-31T06:07:14.507Z,99531.06
2022-12-31T06:07:59.138Z,99569.03
2022-12-31T06:08:40.770Z,99550.97
2022-12-31T06:09:22.750Z,99546.09
2022-12-31T06:10:05.227Z,99553.09
2022-12-31T06:10:47.238Z,99548.25
2022-12-31T06:11:28.928Z,99554.72
2022-12-31T06:12:10.737Z,99562.06
2022-12-31T06:12:52.342Z,99502.84
2022-12-31T06:13:34.071Z,99551.72
2022-12-31T06:14:15.877Z,99559.38
2022-12-31T06:14:57.478Z,99573.94
2022-12-31T06:15:40.202Z,99552.41
2022-12-31T06:16:21.891Z,99550.16
2022-12-31T06:17:03.597Z,99565.31
2022-12-31T06:17:45.252Z,99562.28
2022-12-31T06:18:26.916Z,99562.16
2022-12-31T06:19:09.627Z,99542.09
2022-12-31T06:19:51.313Z,99545.84
2022-12-31T06:20:33.142Z,99570.44
2022-12-31T06:21:15.843Z,99579.28
2022-12-31T06:21:57.574Z,99557.16
2022-12-31T06:22:39.144Z,99577.78
2022-12-31T06:23:20.781Z,99562.97
2022-12-31T06:24:02.365Z,99576.38
2022-12-31T06:24:43.999Z,99569.25
2022-12-31T06:25:25.851Z,99575.56
2022-12-31T06:26:08.026Z,99585.69
2022-12-31T06:26:49.806Z,99574.00
2022-12-31T06:27:33.512Z,99561.13
2022-12-31T06:28:20.000Z,99582.78
2022-12-31T06:29:02.037Z,99572.31
2022-12-31T06:29:45.583Z,99592.28
2022-12-31T06:30:27.183Z,99540.28
2022-12-31T06:31:11.889Z,99584.69
2022-12-31T06:31:53.500Z,99549.91
2022-12-31T06:32:35.079Z,99583.53
2022-12-31T06:33:17.593Z,99566.25
2022-12-31T06:33:59.227Z,99589.53
2022-12-31T06:34:40.860Z,99589.16
2022-12-31T06:35:22.781Z,99615.47
2022-12-31T06:36:06.950Z,99534.16
2022-12-31T06:36:48.567Z,99594.00
2022-12-31T06:37:30.139Z,99605.44
2022-12-31T06:38:11.745Z,99606.50
2022-12-31T06:38:53.933Z,99591.16
2022-12-31T06:39:35.570Z,99615.59
2022-12-31T06:40:17.331Z,99586.34
2022-12-31T06:41:03.297Z,99589.41
2022-12-31T06:41:47.521Z,99613.16
2022-12-31T06:42:30.916Z,99615.22
2022-12-31T06:43:12.583Z,99550.75
2022-12-31T06:43:55.453Z,99606.25
2022-12-31T06:44:37.098Z,99615.69
2022-12-31T06:45:19.226Z,99610.56
2022-12-31T06:46:03.196Z,99614.06
2022-12-31T06:46:44.911Z,99622.06
2022-12-31T06:47:26.601Z,99615.09
2022-12-31T06:48:08.293Z,99601.03
2022-12-31T06:48:49.921Z,99627.25
2022-12-31T06:49:31.507Z,99623.16
2022-12-31T06:50:13.360Z,99574.25
2022-12-31T06:50:55.063Z,99607.03
2022-12-31T06:51:36.639Z,99602.16
2022-12-31T06:52:18.295Z,99615.28
2022-12-31T06:53:00.119Z,99593.34
2022-12-31T06:53:41.844Z,99551.38
2022-12-31T06:54:25.795Z,99602.56
2022-12-31T06:55:11.103Z,99602.84
2022-12-31T06:55:52.846Z,99564.22
2022-12-31T06:56:35.407Z,99600.31
2022-12-31T06:57:17.557Z,99600.16
2022-12-31T06:57:59.504Z,99603.44
2022-12-31T06:58:41.732Z,99603.66
2022-12-31T06:59:29.238Z,99587.53
2022-12-31T07:00:11.547Z,99589.16
2022-12-31T07:01:28.975Z,99592.81
2022-12-31T07:02:48.918Z,99598.97
2022-12-31T07:04:08.127Z,99594.69
2022-12-31T07:04:55.769Z,99592.81
2022-12-31T07:05:48.611Z,99593.22
2022-12-31T07:07:15.245Z,99592.16
2022-12-31T07:08:15.784Z,99591.56
2022-12-31T07:09:16.553Z,99598.59
2022-12-31T07:10:25.576Z,99593.84
2022-12-31T07:11:28.832Z,99586.88
2022-12-31T07:12:36.694Z,99577.31
2022-12-31T07:13:33.189Z,99587.91
2022-12-31T07:14:32.819Z,99598.59
2022-12-31T07:15:17.104Z,99593.25
2022-12-31T07:16:20.939Z,99593.03
2022-12-31T07:17:29.659Z,99592.00
2022-12-31T07:18:29.727Z,99589.13
2022-12-31T07:19:26.876Z,99593.22
2022-12-31T07:20:13.016Z,99605.88
2022-12-31T07:20:55.590Z,99594.81
2022-12-31T07:21:39.706Z,99603.81
2022-12-31T07:22:21.620Z,99612.25
2022-12-31T07:23:03.453Z,99605.66
2022-12-31T07:23:45.441Z,99612.84
2022-12-31T07:24:27.578Z,99605.88
2022-12-31T07:25:16.988Z,99572.31
2022-12-31T07:26:15.352Z,99609.56
2022-12-31T07:27:11.628Z,99591.09
2022-12-31T07:28:00.558Z,99602.56
2022-12-31T07:29:04.766Z,99605.06
2022-12-31T07:30:13.261Z,99586.66
2022-12-31T07:31:04.620Z,99607.88
2022-12-31T07:31:59.505Z,99608.69
2022-12-31T07:32:43.695Z,99611.34
2022-12-31T07:33:35.786Z,99618.53
2022-12-31T07:35:05.624Z,99565.25
2022-12-31T07:35:56.125Z,99611.22
2022-12-31T07:37:02.783Z,99610.75
2022-12-31T07:38:19.055Z,99615.88
2022-12-31T07:39:09.103Z,99617.72
2022-12-31T07:40:02.392Z,99626.78
2022-12-31T07:41:09.447Z,99615.66
2022-12-31T07:42:37.204Z,99614.03
2022-12-31T07:43:40.228Z,99630.59
2022-12-31T07:45:09.727Z,99622.34
2022-12-31T07:46:02.711Z,99625.00
2022-12-31T07:46:49.924Z,99631.34
2022-12-31T07:47:31.873Z,99634.63
2022-12-31T07:48:29.264Z,99581.03
2022-12-31T07:49:12.736Z,99630.09
2022-12-31T07:49:55.919Z,99615.41
2022-12-31T07:50:39.247Z,99632.16
2022-12-31T07:51:21.635Z,99636.16
2022-12-31T07:52:03.666Z,99584.53
2022-12-31T07:52:46.234Z,99654.44
2022-12-31T07:53:28.296Z,99614.88
2022-12-31T07:54:13.860Z,99648.28
2022-12-31T07:54:55.907Z,99637.59
2022-12-31T07:55:37.604Z,99608.97
2022-12-31T07:56:19.261Z,99621.84
2022-12-31T07:57:00.927Z,99631.94
2022-12-31T07:58:02.497Z,99624.88
2022-12-31T07:59:02.834Z,99638.78
2022-12-31T08:00:03.028Z,99657.19
2022-12-31T08:00:57.674Z,99647.31
2022-12-31T08:01:50.634Z,99648.66
2022-12-31T08:02:35.487Z,99650.88
2022-12-31T08:03:54.977Z,99645.69
2022-12-31T08:04:42.175Z,99659.50
2022-12-31T08:05:30.989Z,99656.63
2022-12-31T08:06:12.701Z,99647.63
2022-12-31T08:07:15.761Z,99659.63
2022-12-31T08:08:36.040Z,99652.00
2022-12-31T08:09:24.419Z,99657.34
2022-12-31T08:10:26.211Z,99674.03
2022-12-31T08:11:25.407Z,99638.88
2022-12-31T08:12:08.449Z,99619.53
2022-12-31T08:12:50.532Z,99666.31
2022-12-31T08:13:32.756Z,99658.31
2022-12-31T08:14:15.657Z,99652.22
2022-12-31T08:15:02.648Z,99639.81
2022-12-31T08:16:00.525Z,99640.78
2022-12-31T08:16:42.470Z,99631.50
2022-12-31T08:17:26.300Z,99668.06
2022-12-31T08:18:08.502Z,99591.00
2022-12-31T08:18:50.882Z,99551.19
2022-12-31T08:19:33.035Z,99657.72
2022-12-31T08:20:16.154Z,99628.59
2022-12-31T08:21:22.415Z,99606.56
2022-12-31T08:22:19.583Z,99679.25
2022-12-31T08:23:16.527Z,99670.59
2022-12-31T08:24:04.277Z,99667.59
2022-12-31T08:25:07.980Z,99669.13
2022-12-31T08:26:03.563Z,99639.38
2022-12-31T08:27:10.802Z,99681.47
2022-12-31T08:28:11.332Z,99669.75
2022-12-31T08:29:29.865Z,99687.19
2022-12-31T08:30:17.581Z,99684.31
2022-12-31T08:31:08.612Z,99670.34
2022-12-31T08:32:09.006Z,99652.81
2022-12-31T08:33:27.217Z,99685.94
2022-12-31T08:34:27.635Z,99691.91
2022-12-31T08:35:47.682Z,99688.16
2022-12-31T08:36:51.725Z,99682.34
2022-12-31T08:37:59.464Z,99687.47
2022-12-31T08:38:47.203Z,99685.72
2022-12-31T08:39:39.740Z,99687.47
2022-12-31T08:40:31.550Z,99674.34
2022-12-31T08:41:21.638Z,99696.25
2022-12-31T08:42:08.332Z,99684.16
2022-12-31T08:43:24.329Z,99687.84
2022-12-31T08:44:30.475Z,99692.16
2022-12-31T08:45:25.399Z,99697.97
2022-12-31T08:46:20.898Z,99681.59
2022-12-31T08:47:02.650Z,99683.63
2022-12-31T08:48:00.297Z,99696.38
2022-12-31T08:48:43.769Z,99694.75
2022-12-31T08:49:27.655Z,99702.78
2022-12-31T08:50:18.469Z,99689.00
2022-12-31T08:51:00.372Z,99690.63
2022-12-31T08:51:42.361Z,99667.94
2022-12-31T08:52:26.100Z,99700.06
2022-12-31T08:53:07.982Z,99701.69
2022-12-31T08:53:50.595Z,99699.59
2022-12-31T08:54:32.393Z,99684.50
2022-12-31T08:55:18.865Z,99687.34
2022-12-31T08:56:10.186Z,99694.41
2022-12-31T08:57:03.031Z,99701.50
2022-12-31T08:58:12.315Z,99701.44
2022-12-31T08:59:08.953Z,99709.25
2022-12-31T09:00:12.827Z,99706.19
2022-12-31T09:00:59.122Z,99686.00
2022-12-31T09:01:59.092Z,99714.81
2022-12-31T09:03:04.190Z,99703.72
2022-12-31T09:04:08.772Z,99704.09
2022-12-31T09:05:11.477Z,99703.50
2022-12-31T09:06:11.545Z,99716.56
2022-12-31T09:06:59.835Z,99713.84